Terminal Aerodrome Forecast
Issued by NWS

Home | Current Version | Previous Version | Text Only | Print | Product List | Glossary Off
Versions: 1 2 3 4 5 6 7 8 9 10 11 12 13 14 15 16 17 18 19 20 21 22 23 24 25

134
FTUS43 KFGF 201312 AAA
TAFBJI
TAF AMD
KBJI 201312Z 2013/2112 VRB06KT P6SM VCTS OVC100CB WS020/19035KT
      TEMPO 2013/2016 -SHRA BKN050
     FM201600 15009KT P6SM VCSH OVC050
     FM202200 24011KT P6SM BKN035
     FM210000 27011KT P6SM BKN035
     FM210700 25006KT P6SM SCT080=

USA.gov is the U.S. government's official web portal to all federal, state and local government web resources and services.